createdAt,value
2023-10-01T00:00:08.705Z,100267.80
2023-10-01T00:03:16.292Z,100265.42
2023-10-01T00:06:04.966Z,100265.61
2023-10-01T00:08:54.798Z,100278.58
2023-10-01T00:11:42.789Z,100281.70
2023-10-01T00:14:30.521Z,100282.85
2023-10-01T00:17:17.974Z,100279.06
2023-10-01T00:20:14.141Z,100269.70
2023-10-01T00:23:03.945Z,100270.59
2023-10-01T00:25:51.673Z,100268.95
2023-10-01T00:28:46.318Z,100273.73
2023-10-01T00:31:34.005Z,100274.61
2023-10-01T00:34:21.796Z,100274.59
2023-10-01T00:37:17.453Z,100272.39
2023-10-01T00:40:08.169Z,100265.09
2023-10-01T00:42:56.567Z,100269.77
2023-10-01T00:45:44.212Z,100273.06
2023-10-01T00:48:32.018Z,100277.52
2023-10-01T00:51:21.397Z,100275.35
2023-10-01T00:54:11.667Z,100272.30
2023-10-01T00:56:59.166Z,100272.41
2023-10-01T00:59:47.501Z,100269.46
2023-10-01T01:02:38.447Z,100271.34
2023-10-01T01:05:36.041Z,100266.30
2023-10-01T01:08:30.533Z,100262.86
2023-10-01T01:11:18.068Z,100255.74
2023-10-01T01:14:05.864Z,100249.67
2023-10-01T01:16:54.202Z,100245.73
2023-10-01T01:19:43.721Z,100246.02
2023-10-01T01:22:35.109Z,100237.94
2023-10-01T01:25:22.681Z,100239.84
2023-10-01T01:28:13.974Z,100240.42
2023-10-01T01:31:05.494Z,100246.42
2023-10-01T01:33:57.425Z,100235.99
2023-10-01T01:36:46.868Z,100240.20
2023-10-01T01:39:44.106Z,100225.89
2023-10-01T01:42:31.702Z,100234.38
2023-10-01T01:45:27.086Z,100237.68
2023-10-01T01:48:31.343Z,100237.02
2023-10-01T01:51:22.046Z,100235.80
2023-10-01T01:54:10.999Z,100236.09
2023-10-01T01:56:59.673Z,100235.52
2023-10-01T01:59:47.168Z,100236.88
2023-10-01T02:02:34.728Z,100239.91
2023-10-01T02:05:29.390Z,100238.67
2023-10-01T02:08:25.904Z,100245.59
2023-10-01T02:11:14.865Z,100246.98
2023-10-01T02:14:05.883Z,100244.98
2023-10-01T02:16:57.340Z,100243.23
2023-10-01T02:19:48.639Z,100234.74
2023-10-01T02:22:36.255Z,100245.11
2023-10-01T02:25:38.197Z,100241.66
2023-10-01T02:28:27.388Z,100238.20
2023-10-01T02:31:15.184Z,100236.74
2023-10-01T02:34:03.610Z,100234.83
2023-10-01T02:36:51.428Z,100236.20
2023-10-01T02:39:42.346Z,100230.04
2023-10-01T02:42:32.707Z,100233.17
2023-10-01T02:45:33.584Z,100231.13
2023-10-01T02:48:21.806Z,100225.93
2023-10-01T02:51:16.462Z,100228.59
2023-10-01T02:54:05.675Z,100225.58
2023-10-01T02:57:13.533Z,100225.75
2023-10-01T03:00:12.694Z,100236.98
2023-10-01T03:03:00.787Z,100237.34
2023-10-01T03:05:49.131Z,100235.84
2023-10-01T03:08:49.859Z,100233.45
2023-10-01T03:11:42.653Z,100232.44
2023-10-01T03:14:30.642Z,100228.05
2023-10-01T03:17:19.811Z,100228.34
2023-10-01T03:20:41.129Z,100225.13
2023-10-01T03:23:29.349Z,100224.73
2023-10-01T03:26:18.549Z,100214.30
2023-10-01T03:29:22.665Z,100211.30
2023-10-01T03:32:28.796Z,100211.25
2023-10-01T03:35:16.391Z,100207.90
2023-10-01T03:38:15.753Z,100207.65
2023-10-01T03:41:08.700Z,100208.05
2023-10-01T03:44:22.462Z,100207.09
2023-10-01T03:47:10.446Z,100207.27
2023-10-01T03:49:58.803Z,100211.11
2023-10-01T03:52:53.118Z,100213.69
2023-10-01T03:55:43.453Z,100214.81
2023-10-01T03:58:37.421Z,100211.05
2023-10-01T04:01:34.920Z,100209.98
2023-10-01T04:04:22.441Z,100204.63
2023-10-01T04:07:13.349Z,100204.38
2023-10-01T04:10:02.867Z,100209.66
2023-10-01T04:12:56.042Z,100209.83
2023-10-01T04:15:50.934Z,100207.20
2023-10-01T04:18:43.301Z,100202.51
2023-10-01T04:21:35.992Z,100200.33
2023-10-01T04:24:24.107Z,100201.25
2023-10-01T04:27:24.772Z,100205.91
2023-10-01T04:30:12.817Z,100205.34
2023-10-01T04:33:00.327Z,100202.48
2023-10-01T04:35:57.645Z,100200.81
2023-10-01T04:38:47.070Z,100201.44
2023-10-01T04:41:36.018Z,100201.60
2023-10-01T04:44:23.831Z,100199.46
2023-10-01T04:47:32.471Z,100197.06
2023-10-01T04:50:21.400Z,100195.39
2023-10-01T04:53:09.127Z,100193.02
2023-10-01T04:56:02.779Z,100194.38
2023-10-01T04:58:53.116Z,100201.51
2023-10-01T05:01:41.241Z,100204.31
2023-10-01T05:04:32.387Z,100205.55
2023-10-01T05:07:20.392Z,100209.77
2023-10-01T05:10:09.858Z,100213.73
2023-10-01T05:12:59.766Z,100213.36
2023-10-01T05:15:50.999Z,100214.08
2023-10-01T05:18:38.485Z,100219.52
2023-10-01T05:21:28.467Z,100221.55
2023-10-01T05:24:35.829Z,100222.11
2023-10-01T05:27:25.759Z,100223.10
2023-10-01T05:30:33.297Z,100225.05
2023-10-01T05:33:20.862Z,100229.28
2023-10-01T05:36:10.128Z,100233.66
2023-10-01T05:38:58.136Z,100230.64
2023-10-01T05:41:46.182Z,100230.27
2023-10-01T05:44:36.188Z,100230.48
2023-10-01T05:47:24.312Z,100233.07
2023-10-01T05:50:14.310Z,100236.33
2023-10-01T05:53:02.586Z,100233.60
2023-10-01T05:55:50.999Z,100237.84
2023-10-01T05:58:45.932Z,100236.47
2023-10-01T06:01:34.761Z,100232.15
2023-10-01T06:04:22.473Z,100232.43
2023-10-01T06:07:10.099Z,100229.27
2023-10-01T06:09:58.902Z,100234.92
2023-10-01T06:12:52.578Z,100241.42
2023-10-01T06:15:40.938Z,100243.80
2023-10-01T06:18:28.686Z,100241.00
2023-10-01T06:21:17.425Z,100243.21
2023-10-01T06:24:08.477Z,100243.22
2023-10-01T06:26:57.450Z,100244.16
2023-10-01T06:29:51.073Z,100247.85
2023-10-01T06:32:39.211Z,100249.17
2023-10-01T06:35:27.721Z,100248.56
2023-10-01T06:38:15.503Z,100252.11
2023-10-01T06:41:02.942Z,100247.70
2023-10-01T06:43:50.515Z,100256.86
2023-10-01T06:46:38.984Z,100258.54
2023-10-01T06:49:26.771Z,100258.96
2023-10-01T06:52:16.555Z,100265.05
2023-10-01T06:55:06.220Z,100259.55
2023-10-01T06:57:54.693Z,100259.25
2023-10-01T07:00:42.953Z,100256.91
2023-10-01T07:03:32.792Z,100255.95
2023-10-01T07:06:22.393Z,100249.80
2023-10-01T07:09:29.140Z,100250.17
2023-10-01T07:12:19.262Z,100257.33
2023-10-01T07:15:07.909Z,100265.25
2023-10-01T07:17:55.513Z,100261.73
2023-10-01T07:20:48.243Z,100267.18
2023-10-01T07:23:36.585Z,100267.15
2023-10-01T07:26:24.043Z,100268.81
2023-10-01T07:29:11.915Z,100263.89
2023-10-01T07:32:00.077Z,100269.16
2023-10-01T07:34:50.357Z,100267.92
2023-10-01T07:37:39.071Z,100273.80
2023-10-01T07:40:26.484Z,100274.55
2023-10-01T07:43:14.568Z,100277.40
2023-10-01T07:46:09.553Z,100280.17
2023-10-01T07:49:02.024Z,100283.85
2023-10-01T07:51:52.189Z,100284.48
2023-10-01T07:54:41.584Z,100285.44
2023-10-01T07:57:29.289Z,100290.74
2023-10-01T08:00:27.539Z,100288.19
2023-10-01T08:03:21.982Z,100294.86
2023-10-01T08:06:13.855Z,100299.09
2023-10-01T08:09:06.341Z,100299.56
2023-10-01T08:12:06.798Z,100300.32
2023-10-01T08:15:13.298Z,100312.03
2023-10-01T08:18:19.221Z,100315.48
2023-10-01T08:21:17.258Z,100318.98
2023-10-01T08:24:11.506Z,100318.77
2023-10-01T08:26:59.450Z,100323.95
2023-10-01T08:30:05.968Z,100323.52
2023-10-01T08:33:13.505Z,100318.10
2023-10-01T08:36:14.008Z,100312.52
2023-10-01T08:39:21.136Z,100307.33
2023-10-01T08:42:11.753Z,100303.00
2023-10-01T08:45:05.258Z,100303.19
2023-10-01T08:47:53.005Z,100304.76
2023-10-01T08:50:41.939Z,100304.91
2023-10-01T08:53:37.670Z,100300.84
2023-10-01T08:56:48.163Z,100298.38
2023-10-01T08:59:36.249Z,100299.52
2023-10-01T09:02:27.104Z,100300.86
2023-10-01T09:05:24.779Z,100298.64
2023-10-01T09:08:30.794Z,100292.45
2023-10-01T09:11:19.922Z,100286.30
2023-10-01T09:14:18.524Z,100286.20
2023-10-01T09:17:28.452Z,100281.11
2023-10-01T09:20:19.128Z,100279.96
2023-10-01T09:23:07.320Z,100282.88
2023-10-01T09:26:01.814Z,100281.15
2023-10-01T09:28:49.174Z,100280.97
2023-10-01T09:31:58.139Z,100287.10
2023-10-01T09:34:55.187Z,100290.91
2023-10-01T09:37:54.038Z,100297.10
2023-10-01T09:40:44.031Z,100305.16
2023-10-01T09:43:33.893Z,100308.44
2023-10-01T09:46:24.551Z,100303.43
2023-10-01T09:49:22.529Z,100301.30
2023-10-01T09:52:13.604Z,100302.29
2023-10-01T09:55:12.143Z,100298.99
2023-10-01T09:58:11.597Z,100298.23
2023-10-01T10:01:02.854Z,100298.31
2023-10-01T10:03:55.857Z,100294.63
2023-10-01T10:06:43.618Z,100288.57
2023-10-01T10:09:32.681Z,100287.06
2023-10-01T10:12:35.355Z,100289.02
2023-10-01T10:15:59.104Z,100282.73
2023-10-01T10:19:17.167Z,100284.98
2023-10-01T10:22:18.473Z,100283.00
2023-10-01T10:25:27.658Z,100286.40
2023-10-01T10:28:55.107Z,100288.62
2023-10-01T10:31:45.909Z,100292.25
2023-10-01T10:34:37.932Z,100287.96
2023-10-01T10:37:38.069Z,100291.50
2023-10-01T10:40:29.375Z,100289.40
2023-10-01T10:43:18.684Z,100293.15
2023-10-01T10:46:10.308Z,100293.44
2023-10-01T10:49:01.868Z,100295.40
2023-10-01T10:51:51.187Z,100287.87
2023-10-01T10:54:38.495Z,100293.73
2023-10-01T10:57:30.422Z,100296.61
2023-10-01T11:00:25.516Z,100309.41
2023-10-01T11:03:13.257Z,100306.23
2023-10-01T11:06:41.667Z,100307.88
2023-10-01T11:09:32.236Z,100310.05
2023-10-01T11:12:23.285Z,100309.28
2023-10-01T11:15:25.071Z,100307.79
2023-10-01T11:18:12.817Z,100304.52
2023-10-01T11:21:03.567Z,100305.65
2023-10-01T11:23:57.108Z,100306.38
2023-10-01T11:27:27.780Z,100300.92
2023-10-01T11:30:21.820Z,100313.40
2023-10-01T11:33:15.541Z,100304.11
2023-10-01T11:36:11.452Z,100299.96
2023-10-01T11:38:59.305Z,100297.73
2023-10-01T11:41:47.308Z,100294.84
2023-10-01T11:44:44.832Z,100298.84
2023-10-01T11:48:06.952Z,100304.45
2023-10-01T11:50:55.368Z,100303.36
2023-10-01T11:54:13.712Z,100300.34
2023-10-01T11:57:06.610Z,100298.11
2023-10-01T12:00:02.461Z,100297.73
2023-10-01T12:02:59.878Z,100298.84
2023-10-01T12:05:49.723Z,100300.63
2023-10-01T12:08:37.290Z,100294.71
2023-10-01T12:11:28.078Z,100295.17
2023-10-01T12:14:20.267Z,100297.05
2023-10-01T12:17:08.005Z,100302.27
2023-10-01T12:20:04.862Z,100304.59
2023-10-01T12:23:12.920Z,100300.11
2023-10-01T12:26:20.408Z,100302.23
2023-10-01T12:29:14.389Z,100298.71
2023-10-01T12:32:05.214Z,100298.32
2023-10-01T12:34:53.061Z,100302.82
2023-10-01T12:37:40.434Z,100303.81
2023-10-01T12:40:29.103Z,100296.63
2023-10-01T12:43:35.700Z,100296.84
2023-10-01T12:46:25.907Z,100292.81
2023-10-01T12:49:16.348Z,100294.55
2023-10-01T12:52:07.028Z,100294.57
2023-10-01T12:55:02.074Z,100297.23
2023-10-01T12:57:49.576Z,100295.84
2023-10-01T13:00:46.086Z,100298.30
2023-10-01T13:03:44.299Z,100297.85
2023-10-01T13:06:34.741Z,100296.79
2023-10-01T13:09:41.183Z,100301.49
2023-10-01T13:12:31.647Z,100301.90
2023-10-01T13:15:27.429Z,100299.80
2023-10-01T13:18:24.122Z,100299.66
2023-10-01T13:21:12.281Z,100296.95
2023-10-01T13:24:10.483Z,100297.26
2023-10-01T13:27:11.522Z,100295.73
2023-10-01T13:30:20.095Z,100293.96
2023-10-01T13:33:18.251Z,100294.71
2023-10-01T13:36:14.113Z,100290.02
2023-10-01T13:39:16.283Z,100291.63
2023-10-01T13:42:24.121Z,100284.41
2023-10-01T13:45:30.209Z,100287.49
2023-10-01T13:48:36.158Z,100290.13
2023-10-01T13:51:42.661Z,100293.19
2023-10-01T13:54:48.826Z,100291.54
2023-10-01T13:57:54.710Z,100295.52
2023-10-01T14:01:01.773Z,100295.01
2023-10-01T14:04:08.120Z,100295.61
2023-10-01T14:07:16.859Z,100298.08
2023-10-01T14:10:06.523Z,100284.67
2023-10-01T14:12:57.631Z,100286.41
2023-10-01T14:15:45.832Z,100290.38
2023-10-01T14:18:37.358Z,100290.64
2023-10-01T14:21:28.893Z,100283.33
2023-10-01T14:24:28.570Z,100287.64
2023-10-01T14:27:26.055Z,100287.09
2023-10-01T14:30:26.125Z,100285.58
2023-10-01T14:33:26.368Z,100280.25
2023-10-01T14:36:15.767Z,100276.70
2023-10-01T14:39:06.324Z,100277.75
2023-10-01T14:41:54.006Z,100275.46
2023-10-01T14:44:44.254Z,100271.30
2023-10-01T14:47:33.354Z,100271.56
2023-10-01T14:50:22.679Z,100267.14
2023-10-01T14:53:12.291Z,100269.54
2023-10-01T14:56:05.984Z,100270.71
2023-10-01T14:58:53.701Z,100276.58
2023-10-01T15:01:46.733Z,100277.46
2023-10-01T15:04:37.779Z,100279.65
2023-10-01T15:07:27.320Z,100280.00
2023-10-01T15:10:17.521Z,100284.70
2023-10-01T15:13:10.875Z,100287.60
2023-10-01T15:16:13.160Z,100288.38
2023-10-01T15:19:15.512Z,100290.34
2023-10-01T15:22:15.297Z,100293.04
2023-10-01T15:25:05.423Z,100295.92
2023-10-01T15:27:53.320Z,100296.77
2023-10-01T15:30:46.555Z,100291.84
2023-10-01T15:33:35.668Z,100282.98
2023-10-01T15:36:23.765Z,100296.05
2023-10-01T15:39:29.005Z,100296.91
2023-10-01T15:42:16.585Z,100295.42
2023-10-01T15:45:18.555Z,100299.96
2023-10-01T15:48:09.113Z,100294.79
2023-10-01T15:51:03.867Z,100298.80
2023-10-01T15:53:51.384Z,100298.98
2023-10-01T15:56:39.064Z,100304.05
2023-10-01T15:59:26.762Z,100302.05
2023-10-01T16:02:20.438Z,100311.34
2023-10-01T16:05:16.626Z,100310.55
2023-10-01T16:08:05.250Z,100297.00
2023-10-01T16:11:03.676Z,100306.11
2023-10-01T16:13:57.620Z,100299.05
2023-10-01T16:16:45.757Z,100299.60
2023-10-01T16:19:34.803Z,100304.81
2023-10-01T16:22:28.365Z,100306.96
2023-10-01T16:25:16.223Z,100311.02
2023-10-01T16:28:05.202Z,100307.98
2023-10-01T16:31:08.449Z,100313.41
2023-10-01T16:34:01.523Z,100309.85
2023-10-01T16:36:51.562Z,100318.50
2023-10-01T16:39:41.302Z,100316.36
2023-10-01T16:42:29.379Z,100315.58
2023-10-01T16:45:29.745Z,100318.59
2023-10-01T16:48:30.828Z,100317.98
2023-10-01T16:51:19.219Z,100319.30
2023-10-01T16:54:18.037Z,100328.05
2023-10-01T16:57:14.187Z,100325.88
2023-10-01T17:00:02.936Z,100324.28
2023-10-01T17:02:51.652Z,100327.83
2023-10-01T17:05:44.281Z,100326.77
2023-10-01T17:08:36.578Z,100329.21
2023-10-01T17:11:29.117Z,100338.08
2023-10-01T17:14:17.502Z,100337.70
2023-10-01T17:17:08.152Z,100338.83
2023-10-01T17:19:55.634Z,100344.11
2023-10-01T17:22:46.555Z,100345.67
2023-10-01T17:25:35.208Z,100344.61
2023-10-01T17:28:58.425Z,100346.82
2023-10-01T17:31:49.806Z,100346.14
2023-10-01T17:34:38.170Z,100345.48
2023-10-01T17:37:27.168Z,100343.16
2023-10-01T17:40:19.245Z,100341.56
2023-10-01T17:43:07.875Z,100349.96
2023-10-01T17:46:04.265Z,100349.98
2023-10-01T17:48:56.482Z,100350.25
2023-10-01T17:51:46.376Z,100348.49
2023-10-01T17:54:37.190Z,100347.39
2023-10-01T17:57:28.365Z,100350.48
2023-10-01T18:00:37.017Z,100349.05
2023-10-01T18:03:32.778Z,100356.98
2023-10-01T18:06:29.713Z,100355.76
2023-10-01T18:09:21.995Z,100352.48
2023-10-01T18:12:15.747Z,100361.71
2023-10-01T18:15:07.316Z,100357.11
2023-10-01T18:17:58.795Z,100362.29
2023-10-01T18:20:46.603Z,100362.53
2023-10-01T18:23:34.042Z,100364.55
2023-10-01T18:26:22.167Z,100367.03
2023-10-01T18:29:17.972Z,100364.58
2023-10-01T18:32:07.206Z,100363.23
2023-10-01T18:34:57.093Z,100370.86
2023-10-01T18:37:47.612Z,100372.54
2023-10-01T18:40:35.769Z,100369.64
2023-10-01T18:43:25.844Z,100381.36
2023-10-01T18:46:14.709Z,100382.53
2023-10-01T18:49:02.729Z,100381.86
2023-10-01T18:51:55.008Z,100382.41
2023-10-01T18:54:43.130Z,100377.53
2023-10-01T18:57:34.205Z,100375.17
2023-10-01T19:00:27.135Z,100373.46
2023-10-01T19:03:15.443Z,100374.95
2023-10-01T19:06:04.846Z,100384.72
2023-10-01T19:08:53.229Z,100383.09
2023-10-01T19:11:47.947Z,100385.73
2023-10-01T19:14:36.298Z,100385.29
2023-10-01T19:17:24.918Z,100384.34
2023-10-01T19:20:17.038Z,100384.09
2023-10-01T19:23:06.115Z,100385.14
2023-10-01T19:26:01.490Z,100383.04
2023-10-01T19:28:50.249Z,100379.11
2023-10-01T19:31:43.456Z,100376.52
2023-10-01T19:34:33.787Z,100374.05
2023-10-01T19:37:22.802Z,100376.05
2023-10-01T19:40:19.356Z,100371.74
2023-10-01T19:43:08.583Z,100373.32
2023-10-01T19:45:58.849Z,100373.48
2023-10-01T19:48:57.308Z,100376.66
2023-10-01T19:51:57.344Z,100375.29
2023-10-01T19:54:45.824Z,100370.46
2023-10-01T19:57:41.340Z,100373.67
2023-10-01T20:00:32.960Z,100378.16
2023-10-01T20:03:24.839Z,100382.04
2023-10-01T20:06:22.308Z,100384.40
2023-10-01T20:09:28.343Z,100389.31
2023-10-01T20:12:19.936Z,100392.34
2023-10-01T20:15:22.265Z,100391.19
2023-10-01T20:18:14.754Z,100387.11
2023-10-01T20:21:05.404Z,100392.23
2023-10-01T20:23:53.087Z,100383.04
2023-10-01T20:26:43.871Z,100384.87
2023-10-01T20:29:36.293Z,100384.14
2023-10-01T20:32:24.370Z,100384.83
2023-10-01T20:35:12.252Z,100385.20
2023-10-01T20:38:00.209Z,100386.40
2023-10-01T20:40:52.097Z,100387.33
2023-10-01T20:43:39.798Z,100385.84
2023-10-01T20:46:29.562Z,100387.87
2023-10-01T20:49:22.702Z,100385.95
2023-10-01T20:52:13.190Z,100382.16
2023-10-01T20:55:16.973Z,100378.83
2023-10-01T20:58:05.114Z,100373.97
2023-10-01T21:00:53.012Z,100376.13
2023-10-01T21:03:50.476Z,100377.14
2023-10-01T21:06:40.268Z,100378.23
2023-10-01T21:09:29.282Z,100376.30
2023-10-01T21:12:21.387Z,100377.80
2023-10-01T21:15:21.772Z,100373.67
2023-10-01T21:18:13.249Z,100374.30
2023-10-01T21:21:01.766Z,100372.80
2023-10-01T21:23:49.203Z,100369.25
2023-10-01T21:26:36.680Z,100368.21
2023-10-01T21:29:26.954Z,100365.03
2023-10-01T21:32:19.712Z,100367.61
2023-10-01T21:35:08.670Z,100367.20
2023-10-01T21:38:09.258Z,100369.86
2023-10-01T21:40:56.931Z,100369.60
2023-10-01T21:43:58.027Z,100371.85
2023-10-01T21:46:46.025Z,100371.44
2023-10-01T21:49:36.695Z,100371.75
2023-10-01T21:52:30.051Z,100375.85
2023-10-01T21:55:19.440Z,100376.11
2023-10-01T21:58:07.448Z,100375.48
2023-10-01T22:01:24.531Z,100376.76
2023-10-01T22:04:26.048Z,100376.33
2023-10-01T22:07:16.065Z,100380.36
2023-10-01T22:10:09.895Z,100379.64
2023-10-01T22:12:57.628Z,100380.23
2023-10-01T22:15:45.170Z,100382.57
2023-10-01T22:18:33.226Z,100381.20
2023-10-01T22:21:22.929Z,100380.33
2023-10-01T22:24:22.925Z,100379.89
2023-10-01T22:27:17.278Z,100384.45
2023-10-01T22:30:16.391Z,100390.38
2023-10-01T22:35:56.117Z,100389.19
2023-10-01T22:38:51.430Z,100391.40
2023-10-01T22:41:40.576Z,100391.90
2023-10-01T22:44:29.717Z,100387.48
2023-10-01T22:47:17.387Z,100391.23
2023-10-01T22:50:14.026Z,100387.71
2023-10-01T22:53:03.064Z,100387.30
2023-10-01T22:55:51.123Z,100381.73
2023-10-01T22:58:38.506Z,100383.93
2023-10-01T23:01:28.140Z,100382.74
2023-10-01T23:04:20.484Z,100379.31
2023-10-01T23:07:10.219Z,100376.30
2023-10-01T23:09:59.173Z,100375.19
2023-10-01T23:12:52.787Z,100378.29
2023-10-01T23:15:49.476Z,100377.48
2023-10-01T23:18:37.418Z,100376.95
2023-10-01T23:21:25.113Z,100375.65
2023-10-01T23:24:12.881Z,100373.48
2023-10-01T23:27:00.761Z,100368.96
2023-10-01T23:29:54.131Z,100372.27
2023-10-01T23:32:46.327Z,100372.19
2023-10-01T23:35:59.681Z,100369.11
2023-10-01T23:38:57.536Z,100369.89
2023-10-01T23:41:53.040Z,100371.73
2023-10-01T23:44:53.008Z,100369.09
2023-10-01T23:47:43.957Z,100365.02
2023-10-01T23:50:32.206Z,100364.20
2023-10-01T23:53:20.460Z,100367.35
2023-10-01T23:56:15.290Z,100363.64
2023-10-01T23:59:22.967Z,100368.30
